createdAt,value
2019-05-22T00:02:19.383Z,42.53
2019-05-22T00:04:53.486Z,41.28
2019-05-22T00:07:23.492Z,41.68
2019-05-22T00:09:55.002Z,41.53
2019-05-22T00:12:25.725Z,41.33
2019-05-22T00:14:56.444Z,39.58
2019-05-22T00:17:30.573Z,42.00
2019-05-22T00:20:01.668Z,40.55
2019-05-22T00:22:33.579Z,41.48
2019-05-22T00:25:05.198Z,40.80
2019-05-22T00:27:35.171Z,44.95
2019-05-22T00:30:08.955Z,46.98
2019-05-22T00:32:39.631Z,47.60
2019-05-22T00:35:09.979Z,46.13
2019-05-22T00:37:40.476Z,45.65
2019-05-22T00:40:12.132Z,49.10
2019-05-22T00:42:43.196Z,46.33
2019-05-22T00:45:14.673Z,43.70
2019-05-22T00:47:44.475Z,43.90
2019-05-22T00:50:16.377Z,44.08
2019-05-22T00:52:50.589Z,45.38
2019-05-22T00:55:26.414Z,43.60
2019-05-22T00:58:07.033Z,46.70
2019-05-22T01:00:39.853Z,44.42
2019-05-22T01:03:11.340Z,44.70
2019-05-22T01:05:42.703Z,44.97
2019-05-22T01:08:14.435Z,38.78
2019-05-22T01:10:45.951Z,37.00
2019-05-22T01:13:15.943Z,33.10
2019-05-22T01:15:46.901Z,34.05
2019-05-22T01:18:16.692Z,37.15
2019-05-22T01:20:48.911Z,34.70
2019-05-22T01:23:20.406Z,41.28
2019-05-22T01:25:52.071Z,35.97
2019-05-22T01:28:21.953Z,37.83
2019-05-22T01:30:56.388Z,38.58
2019-05-22T01:33:27.821Z,42.55
2019-05-22T01:36:02.135Z,42.70
2019-05-22T01:38:33.666Z,40.20
2019-05-22T01:41:10.988Z,41.17
2019-05-22T01:43:42.189Z,33.33
2019-05-22T01:46:12.618Z,32.67
2019-05-22T01:48:42.432Z,37.60
2019-05-22T01:51:13.868Z,38.25
2019-05-22T01:53:43.824Z,42.50
2019-05-22T01:56:15.414Z,42.23
2019-05-22T01:58:45.414Z,45.08
2019-05-22T02:01:23.883Z,32.90
2019-05-22T02:03:55.270Z,27.02
2019-05-22T02:06:26.778Z,29.47
2019-05-22T02:09:17.472Z,39.27
2019-05-22T02:11:49.118Z,43.10
2019-05-22T02:14:20.066Z,38.60
2019-05-22T02:16:56.918Z,41.25
2019-05-22T02:19:22.654Z,40.80
2019-05-22T02:21:54.202Z,42.43
2019-05-22T02:24:23.997Z,42.00
2019-05-22T02:26:54.902Z,37.35
2019-05-22T02:29:26.362Z,37.53
2019-05-22T02:31:57.875Z,36.85
2019-05-22T02:34:28.305Z,39.67
2019-05-22T02:36:59.278Z,40.52
2019-05-22T02:39:30.684Z,39.10
2019-05-22T02:42:06.685Z,39.35
2019-05-22T02:44:37.258Z,41.08
2019-05-22T02:47:18.727Z,43.28
2019-05-22T02:49:40.209Z,40.28
2019-05-22T02:52:10.314Z,39.10
2019-05-22T02:54:40.273Z,39.53
2019-05-22T02:57:11.977Z,39.05
2019-05-22T02:59:42.547Z,39.10
2019-05-22T03:02:14.191Z,40.92
2019-05-22T03:05:07.314Z,31.40
2019-05-22T03:07:38.063Z,43.90
2019-05-22T03:10:10.006Z,44.05
2019-05-22T03:12:41.566Z,47.27
2019-05-22T03:15:13.036Z,45.20
2019-05-22T03:17:43.653Z,45.08
2019-05-22T03:20:16.642Z,47.27
2019-05-22T03:23:09.860Z,47.62
2019-05-22T03:25:40.244Z,42.75
2019-05-22T03:28:11.132Z,41.20
2019-05-22T03:30:42.655Z,38.33
2019-05-22T03:33:13.543Z,42.30
2019-05-22T03:35:50.998Z,42.55
2019-05-22T03:38:21.456Z,42.55
2019-05-22T03:40:53.042Z,43.00
2019-05-22T03:43:25.138Z,42.40
2019-05-22T03:45:56.416Z,43.38
2019-05-22T03:48:28.552Z,43.73
2019-05-22T03:51:12.541Z,42.95
2019-05-22T03:53:43.897Z,42.95
2019-05-22T03:56:15.777Z,45.75
2019-05-22T03:58:46.984Z,34.98
2019-05-22T04:01:17.705Z,46.65
2019-05-22T04:03:48.444Z,43.58
2019-05-22T04:06:19.832Z,44.53
2019-05-22T04:08:51.701Z,49.77
2019-05-22T04:11:22.924Z,48.55
2019-05-22T04:13:53.183Z,42.90
2019-05-22T04:16:24.593Z,42.27
2019-05-22T04:18:55.870Z,44.93
2019-05-22T04:21:25.648Z,43.05
2019-05-22T04:23:55.546Z,42.27
2019-05-22T04:26:26.645Z,44.73
2019-05-22T04:28:57.868Z,43.45
2019-05-22T04:31:49.668Z,43.55
2019-05-22T04:34:20.916Z,45.10
2019-05-22T04:36:50.898Z,44.20
2019-05-22T04:39:24.333Z,46.45
2019-05-22T04:41:55.445Z,42.10
2019-05-22T04:44:26.591Z,42.13
2019-05-22T04:46:56.470Z,41.37
2019-05-22T04:49:26.461Z,43.70
2019-05-22T04:51:56.461Z,43.48
2019-05-22T04:54:26.190Z,43.55
2019-05-22T04:56:56.033Z,42.62
2019-05-22T04:59:25.831Z,43.00
2019-05-22T05:01:56.174Z,41.40
2019-05-22T05:04:25.881Z,40.75
2019-05-22T05:06:55.728Z,40.85
2019-05-22T05:09:25.956Z,39.20
2019-05-22T05:11:55.901Z,40.38
2019-05-22T05:14:26.398Z,40.17
2019-05-22T05:16:56.575Z,40.20
2019-05-22T05:19:27.244Z,39.78
2019-05-22T05:21:57.066Z,37.80
2019-05-22T05:24:27.562Z,40.73
2019-05-22T05:26:59.612Z,41.85
2019-05-22T05:29:29.684Z,41.40
2019-05-22T05:31:59.919Z,42.48
2019-05-22T05:34:39.616Z,41.13
2019-05-22T05:37:10.138Z,44.45
2019-05-22T05:39:44.051Z,40.35
2019-05-22T05:42:13.824Z,42.30
2019-05-22T05:44:43.634Z,45.28
2019-05-22T05:47:13.460Z,52.30
2019-05-22T05:49:43.386Z,43.83
2019-05-22T05:52:13.407Z,42.78
2019-05-22T05:54:43.743Z,44.38
2019-05-22T05:57:36.731Z,44.18
2019-05-22T06:00:09.612Z,45.10
2019-05-22T06:02:53.997Z,45.88
2019-05-22T06:05:11.009Z,45.50
2019-05-22T06:07:41.194Z,44.03
2019-05-22T06:10:27.782Z,43.35
2019-05-22T06:12:57.679Z,44.13
2019-05-22T06:15:46.419Z,45.17
2019-05-22T06:18:29.213Z,45.12
2019-05-22T06:21:03.782Z,42.67
2019-05-22T06:23:35.748Z,41.13
2019-05-22T06:26:07.197Z,41.70
2019-05-22T06:28:38.173Z,44.93
2019-05-22T06:31:11.516Z,39.78
2019-05-22T06:33:41.318Z,40.88
2019-05-22T06:36:13.872Z,41.60
2019-05-22T06:38:48.623Z,37.80
2019-05-22T06:41:20.303Z,38.13
2019-05-22T06:44:22.714Z,34.60
2019-05-22T06:46:53.558Z,31.30
2019-05-22T06:49:35.584Z,33.53
2019-05-22T06:52:08.362Z,31.60
2019-05-22T06:54:38.945Z,32.15
2019-05-22T06:57:11.142Z,32.88
2019-05-22T06:59:41.076Z,31.07
2019-05-22T07:02:13.253Z,31.80
2019-05-22T07:07:12.770Z,29.48
2019-05-22T07:09:44.622Z,30.10
2019-05-22T07:12:15.685Z,29.63
2019-05-22T07:14:51.574Z,31.27
2019-05-22T07:17:23.640Z,29.23
2019-05-22T07:19:53.835Z,30.72
2019-05-22T07:22:24.194Z,31.12
2019-05-22T07:24:54.022Z,31.60
2019-05-22T07:27:26.417Z,30.97
2019-05-22T07:32:30.529Z,32.88
2019-05-22T07:34:58.063Z,30.65
2019-05-22T07:37:28.011Z,34.25
2019-05-22T07:39:57.991Z,31.85
2019-05-22T07:42:27.904Z,32.90
2019-05-22T07:44:57.656Z,30.48
2019-05-22T07:47:27.391Z,30.85
2019-05-22T07:49:57.281Z,28.73
2019-05-22T07:52:27.461Z,28.70
2019-05-22T07:54:57.557Z,30.40
2019-05-22T07:57:27.360Z,30.12
2019-05-22T07:59:57.163Z,30.43
2019-05-22T08:02:27.701Z,28.70
2019-05-22T08:04:57.983Z,26.68
2019-05-22T08:07:28.388Z,28.55
2019-05-22T08:09:58.207Z,29.15
2019-05-22T08:12:29.003Z,27.82
2019-05-22T08:14:59.101Z,27.20
2019-05-22T08:17:29.050Z,27.98
2019-05-22T08:19:58.779Z,27.32
2019-05-22T08:22:29.468Z,27.10
2019-05-22T08:24:59.303Z,24.47
2019-05-22T08:27:29.258Z,23.20
2019-05-22T08:29:59.571Z,24.75
2019-05-22T08:32:29.436Z,23.07
2019-05-22T08:34:59.900Z,23.38
2019-05-22T08:37:30.171Z,23.50
2019-05-22T08:40:00.105Z,25.32
2019-05-22T08:42:34.818Z,22.87
2019-05-22T08:45:02.541Z,22.52
2019-05-22T08:47:32.530Z,20.75
2019-05-22T08:50:02.414Z,21.45
2019-05-22T08:52:32.314Z,20.32
2019-05-22T08:55:02.649Z,19.27
2019-05-22T08:57:33.839Z,22.70
2019-05-22T09:00:06.955Z,19.57
2019-05-22T09:02:36.811Z,8.35
2019-05-22T09:05:08.120Z,6.65
2019-05-22T09:07:39.239Z,5.83
2019-05-22T09:10:09.495Z,6.22
2019-05-22T09:12:39.367Z,6.78
2019-05-22T09:15:09.189Z,5.42
2019-05-22T09:17:40.046Z,5.20
2019-05-22T09:20:11.130Z,5.78
2019-05-22T09:22:41.680Z,5.33
2019-05-22T09:25:13.667Z,6.35
2019-05-22T09:27:44.300Z,6.20
2019-05-22T09:30:14.513Z,6.17
2019-05-22T09:32:47.434Z,5.67
2019-05-22T09:35:15.720Z,6.40
2019-05-22T09:37:45.462Z,6.37
2019-05-22T09:40:15.293Z,6.10
2019-05-22T09:42:45.500Z,6.60
2019-05-22T09:45:16.690Z,6.30
2019-05-22T09:47:46.821Z,6.15
2019-05-22T09:50:17.577Z,6.92
2019-05-22T09:52:57.139Z,6.05
2019-05-22T09:55:19.434Z,7.20
2019-05-22T09:57:49.453Z,7.70
2019-05-22T10:00:20.909Z,7.30
2019-05-22T10:02:50.951Z,7.30
2019-05-22T10:05:21.073Z,7.80
2019-05-22T10:08:00.482Z,6.97
2019-05-22T10:10:22.752Z,7.37
2019-05-22T10:12:53.145Z,6.42
2019-05-22T10:15:23.590Z,6.45
2019-05-22T10:17:53.447Z,6.37
2019-05-22T10:20:24.141Z,7.25
2019-05-22T10:22:54.011Z,6.25
2019-05-22T10:25:23.888Z,6.72
2019-05-22T10:27:53.871Z,7.12
2019-05-22T10:30:24.778Z,6.30
2019-05-22T10:32:54.723Z,6.33
2019-05-22T10:35:25.615Z,6.47
2019-05-22T10:37:55.826Z,5.78
2019-05-22T10:40:26.043Z,6.70
2019-05-22T10:42:56.533Z,6.62
2019-05-22T10:45:27.748Z,8.15
2019-05-22T10:47:57.555Z,7.00
2019-05-22T10:50:27.475Z,7.10
2019-05-22T10:52:57.646Z,7.85
2019-05-22T10:55:28.343Z,7.87
2019-05-22T10:57:58.292Z,8.63
2019-05-22T11:00:29.135Z,7.80
2019-05-22T11:02:58.854Z,7.83
2019-05-22T11:05:29.359Z,7.58
2019-05-22T11:07:59.968Z,7.78
2019-05-22T11:10:29.777Z,7.40
2019-05-22T11:12:59.790Z,6.83
2019-05-22T11:15:29.795Z,7.12
2019-05-22T11:17:59.653Z,7.37
2019-05-22T11:20:30.781Z,8.90
2019-05-22T11:23:01.036Z,6.62
2019-05-22T11:25:31.518Z,6.45
2019-05-22T11:28:01.514Z,7.75
2019-05-22T11:30:31.520Z,6.62
2019-05-22T11:33:01.681Z,7.53
2019-05-22T11:35:32.141Z,8.35
2019-05-22T11:38:02.255Z,7.72
2019-05-22T11:40:33.216Z,7.92
2019-05-22T11:43:03.045Z,8.60
2019-05-22T11:45:32.862Z,8.88
2019-05-22T11:48:02.926Z,8.63
2019-05-22T11:50:33.517Z,7.87
2019-05-22T11:53:03.612Z,6.97
2019-05-22T11:55:44.912Z,7.87
2019-05-22T11:58:06.926Z,8.93
2019-05-22T12:00:36.851Z,7.72
2019-05-22T12:03:07.449Z,8.30
2019-05-22T12:05:37.461Z,8.65
2019-05-22T12:08:08.311Z,9.53
2019-05-22T12:10:38.565Z,11.12
2019-05-22T12:13:09.203Z,8.23
2019-05-22T12:15:40.527Z,9.65
2019-05-22T12:18:10.761Z,9.10
2019-05-22T12:20:40.887Z,9.35
2019-05-22T12:23:10.795Z,8.58
2019-05-22T12:25:41.319Z,9.53
2019-05-22T12:28:11.226Z,9.28
2019-05-22T12:30:41.616Z,9.53
2019-05-22T12:33:13.940Z,8.85
2019-05-22T12:35:44.056Z,8.67
2019-05-22T12:38:14.969Z,9.68
2019-05-22T12:40:46.557Z,8.25
2019-05-22T12:43:18.131Z,8.85
2019-05-22T12:45:49.093Z,8.85
2019-05-22T12:48:19.314Z,10.08
2019-05-22T12:50:49.461Z,9.73
2019-05-22T12:53:19.975Z,8.25
2019-05-22T12:55:49.683Z,9.03
2019-05-22T12:58:20.356Z,8.68
2019-05-22T13:00:50.757Z,7.67
2019-05-22T13:03:20.919Z,8.65
2019-05-22T13:05:51.869Z,8.60
2019-05-22T13:08:21.736Z,9.75
2019-05-22T13:10:52.448Z,8.23
2019-05-22T13:13:22.777Z,9.13
2019-05-22T13:15:54.251Z,8.93
2019-05-22T13:18:24.305Z,9.33
2019-05-22T13:20:54.212Z,9.15
2019-05-22T13:23:24.860Z,9.13
2019-05-22T13:25:55.136Z,11.38
2019-05-22T13:28:25.586Z,9.60
2019-05-22T13:30:55.474Z,8.75
2019-05-22T13:33:26.912Z,10.32
2019-05-22T13:35:56.745Z,10.23
2019-05-22T13:38:27.797Z,9.78
2019-05-22T13:40:57.650Z,9.85
2019-05-22T13:43:28.758Z,9.88
2019-05-22T13:45:58.555Z,9.63
2019-05-22T13:48:28.865Z,8.03
2019-05-22T13:50:59.278Z,9.03
2019-05-22T13:53:29.929Z,9.00
2019-05-22T13:55:59.945Z,8.53
2019-05-22T13:58:30.119Z,9.75
2019-05-22T14:00:59.933Z,9.43
2019-05-22T14:03:30.124Z,9.58
2019-05-22T14:06:01.484Z,10.20
2019-05-22T14:08:31.325Z,9.88
2019-05-22T14:11:01.561Z,10.70
2019-05-22T14:13:32.048Z,8.65
2019-05-22T14:16:01.796Z,9.70
2019-05-22T14:18:31.719Z,9.43
2019-05-22T14:21:01.470Z,10.30
2019-05-22T14:23:31.445Z,10.35
2019-05-22T14:26:01.262Z,10.43
2019-05-22T14:28:31.416Z,8.25
2019-05-22T14:31:01.478Z,8.08
2019-05-22T14:33:31.740Z,7.97
2019-05-22T14:36:02.300Z,8.75
2019-05-22T14:38:32.473Z,9.20
2019-05-22T14:41:02.744Z,8.83
2019-05-22T14:43:32.616Z,7.80
2019-05-22T14:46:02.971Z,8.25
2019-05-22T14:48:33.754Z,8.35
2019-05-22T14:51:03.651Z,7.97
2019-05-22T14:53:33.593Z,7.42
2019-05-22T14:56:03.769Z,7.25
2019-05-22T14:58:34.025Z,7.90
2019-05-22T15:01:04.329Z,8.40
2019-05-22T15:03:35.675Z,8.17
2019-05-22T15:06:05.537Z,8.83
2019-05-22T15:08:35.494Z,8.43
2019-05-22T15:11:05.641Z,8.23
2019-05-22T15:13:35.552Z,8.25
2019-05-22T15:16:05.334Z,7.97
2019-05-22T15:18:35.090Z,7.70
2019-05-22T15:21:06.509Z,8.03
2019-05-22T15:23:37.472Z,7.73
2019-05-22T15:26:07.150Z,8.75
2019-05-22T15:28:36.978Z,8.28
2019-05-22T15:31:06.821Z,8.23
2019-05-22T15:33:37.018Z,7.78
2019-05-22T15:36:08.273Z,8.33
2019-05-22T15:38:41.108Z,8.68
2019-05-22T15:41:11.645Z,8.03
2019-05-22T15:43:41.656Z,8.50
2019-05-22T15:46:11.849Z,8.88
2019-05-22T15:48:41.734Z,8.03
2019-05-22T15:51:11.461Z,10.05
2019-05-22T15:53:41.670Z,9.68
2019-05-22T15:56:11.524Z,9.50
2019-05-22T15:58:43.902Z,9.60
2019-05-22T16:03:45.570Z,9.08
2019-05-22T16:06:16.064Z,8.88
2019-05-22T16:08:46.577Z,9.40
2019-05-22T16:11:17.023Z,9.28
2019-05-22T16:13:46.826Z,8.78
2019-05-22T16:16:16.817Z,9.68
2019-05-22T16:18:47.750Z,9.38
2019-05-22T16:21:18.030Z,9.78
2019-05-22T16:23:48.340Z,9.70
2019-05-22T16:26:18.460Z,9.58
2019-05-22T16:28:48.782Z,9.85
2019-05-22T16:31:19.524Z,10.48
2019-05-22T16:33:49.302Z,12.73
2019-05-22T16:36:20.115Z,17.10
2019-05-22T16:38:49.857Z,10.40
2019-05-22T16:41:19.792Z,9.70
2019-05-22T16:43:50.557Z,9.80
2019-05-22T16:46:22.493Z,10.43
2019-05-22T16:48:52.640Z,9.40
2019-05-22T16:51:22.520Z,9.25
2019-05-22T16:53:54.027Z,9.10
2019-05-22T16:56:23.844Z,10.68
2019-05-22T16:58:53.854Z,9.85
2019-05-22T17:01:25.356Z,10.58
2019-05-22T17:03:56.681Z,9.53
2019-05-22T17:06:26.707Z,8.45
2019-05-22T17:08:58.088Z,9.78
2019-05-22T17:11:28.645Z,10.43
2019-05-22T17:14:01.655Z,10.43
2019-05-22T17:16:33.316Z,9.20
2019-05-22T17:19:03.498Z,9.63
2019-05-22T17:21:34.409Z,11.35
2019-05-22T17:24:04.809Z,15.30
2019-05-22T17:26:35.261Z,11.45
2019-05-22T17:29:05.162Z,10.58
2019-05-22T17:31:35.251Z,11.50
2019-05-22T17:34:07.254Z,12.20
2019-05-22T17:36:37.367Z,10.08
2019-05-22T17:39:09.784Z,15.10
2019-05-22T17:41:41.505Z,13.05
2019-05-22T17:44:12.257Z,10.58
2019-05-22T17:46:42.403Z,9.40
2019-05-22T17:49:12.394Z,10.50
2019-05-22T17:51:42.569Z,9.63
2019-05-22T17:54:13.574Z,13.68
2019-05-22T17:56:44.275Z,11.08
2019-05-22T17:59:14.068Z,11.78
2019-05-22T18:01:44.311Z,10.25
2019-05-22T18:04:14.236Z,10.90
2019-05-22T18:06:44.040Z,10.10
2019-05-22T18:09:14.141Z,10.98
2019-05-22T18:11:44.052Z,10.15
2019-05-22T18:14:13.794Z,10.08
2019-05-22T18:16:43.537Z,10.90
2019-05-22T18:19:13.889Z,10.00
2019-05-22T18:21:43.797Z,8.63
2019-05-22T18:24:13.554Z,7.87
2019-05-22T18:26:43.575Z,8.03
2019-05-22T18:29:13.764Z,7.12
2019-05-22T18:31:43.738Z,7.97
2019-05-22T18:34:13.603Z,7.47
2019-05-22T18:36:43.537Z,8.45
2019-05-22T18:39:15.561Z,9.10
2019-05-22T18:41:45.384Z,9.08
2019-05-22T18:44:15.207Z,9.28
2019-05-22T18:46:45.041Z,10.18
2019-05-22T18:49:14.846Z,9.13
2019-05-22T18:51:45.128Z,8.05
2019-05-22T18:54:14.885Z,7.65
2019-05-22T18:56:44.957Z,9.18
2019-05-22T18:59:14.911Z,9.10
2019-05-22T19:01:45.104Z,9.55
2019-05-22T19:04:15.495Z,9.55
2019-05-22T19:06:45.942Z,10.10
2019-05-22T19:09:16.023Z,10.63
2019-05-22T19:11:46.102Z,8.58
2019-05-22T19:14:16.378Z,9.35
2019-05-22T19:16:46.251Z,7.78
2019-05-22T19:19:16.012Z,7.53
2019-05-22T19:21:45.694Z,7.28
2019-05-22T19:24:15.564Z,8.05
2019-05-22T19:26:45.706Z,8.43
2019-05-22T19:29:15.831Z,7.12
2019-05-22T19:31:46.153Z,7.30
2019-05-22T19:34:16.822Z,5.22
2019-05-22T19:36:47.015Z,5.40
2019-05-22T19:39:17.403Z,5.25
2019-05-22T19:42:01.323Z,6.12
2019-05-22T19:44:19.343Z,6.60
2019-05-22T19:46:49.887Z,6.95
2019-05-22T19:49:20.784Z,7.80
2019-05-22T19:51:50.797Z,8.58
2019-05-22T19:54:20.633Z,9.05
2019-05-22T19:56:50.586Z,10.08
2019-05-22T19:59:20.846Z,11.20
2019-05-22T20:01:51.051Z,11.93
2019-05-22T20:04:20.971Z,14.18
2019-05-22T20:06:51.369Z,14.43
2019-05-22T20:09:21.164Z,15.78
2019-05-22T20:11:51.033Z,15.30
2019-05-22T20:14:21.034Z,17.35
2019-05-22T20:16:51.406Z,18.52
2019-05-22T20:19:21.617Z,18.90
2019-05-22T20:21:51.631Z,19.10
2019-05-22T20:24:22.575Z,22.77
2019-05-22T20:26:52.494Z,21.25
2019-05-22T20:29:22.498Z,21.90
2019-05-22T20:31:52.321Z,23.57
2019-05-22T20:34:22.175Z,21.30
2019-05-22T20:36:52.841Z,21.50
2019-05-22T20:39:24.505Z,21.70
2019-05-22T20:41:54.411Z,22.85
2019-05-22T20:44:25.155Z,21.52
2019-05-22T20:46:55.623Z,23.80
2019-05-22T20:49:26.601Z,23.77
2019-05-22T20:51:56.890Z,23.77
2019-05-22T20:54:26.833Z,23.30
2019-05-22T20:56:57.112Z,25.48
2019-05-22T20:59:27.755Z,25.52
2019-05-22T21:01:59.103Z,26.87
2019-05-22T21:04:29.573Z,25.02
2019-05-22T21:07:02.338Z,25.90
2019-05-22T21:09:32.609Z,24.37
2019-05-22T21:12:04.013Z,24.80
2019-05-22T21:14:34.156Z,26.15
2019-05-22T21:17:05.609Z,25.32
2019-05-22T21:19:35.423Z,25.87
2019-05-22T21:22:06.904Z,25.70
2019-05-22T21:24:37.482Z,24.47
2019-05-22T21:27:07.549Z,25.30
2019-05-22T21:29:37.682Z,24.87
2019-05-22T21:32:08.594Z,25.48
2019-05-22T21:34:39.328Z,24.35
2019-05-22T21:37:10.204Z,24.20
2019-05-22T21:39:40.645Z,24.32
2019-05-22T21:42:12.006Z,24.72
2019-05-22T21:44:41.830Z,24.60
2019-05-22T21:47:11.547Z,23.65
2019-05-22T21:49:42.827Z,22.42
2019-05-22T21:52:13.017Z,22.60
2019-05-22T21:54:42.923Z,21.95
2019-05-22T21:57:13.508Z,21.80
2019-05-22T21:59:43.921Z,19.87
2019-05-22T22:02:15.787Z,20.27
2019-05-22T22:04:45.934Z,19.62
2019-05-22T22:07:16.893Z,20.68
2019-05-22T22:09:47.139Z,18.25
2019-05-22T22:12:20.937Z,18.37
2019-05-22T22:14:51.350Z,17.77
2019-05-22T22:17:22.830Z,15.98
2019-05-22T22:19:54.031Z,14.63
2019-05-22T22:22:26.934Z,14.43
2019-05-22T22:24:56.850Z,17.00
2019-05-22T22:27:27.528Z,15.85
2019-05-22T22:29:57.435Z,17.62
2019-05-22T22:32:28.818Z,18.37
2019-05-22T22:34:59.114Z,18.17
2019-05-22T22:37:29.211Z,19.00
2019-05-22T22:40:00.717Z,20.85
2019-05-22T22:42:31.707Z,19.70
2019-05-22T22:45:03.091Z,20.88
2019-05-22T22:47:34.775Z,20.15
2019-05-22T22:50:07.303Z,21.70
2019-05-22T22:55:08.848Z,22.75
2019-05-22T22:57:39.424Z,24.63
2019-05-22T23:00:10.794Z,24.47
2019-05-22T23:02:40.636Z,23.42
2019-05-22T23:05:10.730Z,27.05
2019-05-22T23:07:41.519Z,25.52
2019-05-22T23:10:12.590Z,25.12
2019-05-22T23:12:43.176Z,25.10
2019-05-22T23:15:13.704Z,25.17
2019-05-22T23:17:44.343Z,25.90
2019-05-22T23:20:13.438Z,26.40
2019-05-22T23:22:43.955Z,27.85
2019-05-22T23:25:13.763Z,26.52
2019-05-22T23:27:43.522Z,29.18
2019-05-22T23:30:13.976Z,29.50
2019-05-22T23:32:44.078Z,28.65
2019-05-22T23:35:13.853Z,30.02
2019-05-22T23:37:43.709Z,30.05
2019-05-22T23:40:15.873Z,28.52
2019-05-22T23:42:45.782Z,29.80
2019-05-22T23:45:17.193Z,29.40
2019-05-22T23:48:06.179Z,30.82
2019-05-22T23:50:37.852Z,31.50
2019-05-22T23:53:08.827Z,30.65
2019-05-22T23:55:38.924Z,30.80
2019-05-22T23:58:09.858Z,31.97
